createdAt,value
2019-05-29T00:01:37.801Z,99.90
2019-05-29T00:04:06.158Z,99.90
2019-05-29T00:06:34.619Z,99.90
2019-05-29T00:09:04.188Z,99.90
2019-05-29T00:11:32.460Z,99.90
2019-05-29T00:14:00.334Z,99.90
2019-05-29T00:16:28.605Z,99.90
2019-05-29T00:18:58.389Z,99.90
2019-05-29T00:21:26.291Z,99.90
2019-05-29T00:23:54.827Z,99.90
2019-05-29T00:26:23.081Z,99.90
2019-05-29T00:28:51.048Z,99.90
2019-05-29T00:31:19.286Z,99.90
2019-05-29T00:33:47.220Z,99.90
2019-05-29T00:36:16.513Z,99.90
2019-05-29T00:38:44.797Z,99.90
2019-05-29T00:41:12.985Z,99.90
2019-05-29T00:43:40.846Z,99.90
2019-05-29T00:46:09.326Z,99.90
2019-05-29T00:48:37.149Z,99.90
2019-05-29T00:51:05.143Z,99.90
2019-05-29T00:53:33.052Z,99.90
2019-05-29T00:56:01.781Z,99.90
2019-05-29T00:58:29.729Z,99.90
2019-05-29T01:00:57.961Z,99.90
2019-05-29T01:03:25.923Z,99.90
2019-05-29T01:05:53.786Z,99.90
2019-05-29T01:08:21.803Z,99.90
2019-05-29T01:10:49.993Z,99.90
2019-05-29T01:13:19.221Z,99.90
2019-05-29T01:15:47.786Z,99.90
2019-05-29T01:18:17.621Z,99.90
2019-05-29T01:20:46.431Z,99.90
2019-05-29T01:23:16.279Z,99.90
2019-05-29T01:25:44.127Z,99.90
2019-05-29T01:28:12.732Z,99.90
2019-05-29T01:30:40.953Z,99.90
2019-05-29T01:33:08.912Z,99.90
2019-05-29T01:35:36.751Z,99.90
2019-05-29T01:38:04.655Z,99.90
2019-05-29T01:40:32.595Z,99.90
2019-05-29T01:43:00.481Z,99.90
2019-05-29T01:45:28.394Z,99.90
2019-05-29T01:47:56.254Z,99.90
2019-05-29T01:50:24.560Z,99.90
2019-05-29T01:52:52.470Z,99.90
2019-05-29T01:55:20.393Z,99.90
2019-05-29T01:57:48.705Z,99.90
2019-05-29T02:00:17.799Z,99.90
2019-05-29T02:02:45.806Z,99.90
2019-05-29T02:05:14.003Z,99.90
2019-05-29T02:07:41.890Z,99.90
2019-05-29T02:10:10.514Z,99.90
2019-05-29T02:12:38.454Z,99.90
2019-05-29T02:15:23.108Z,99.90
2019-05-29T02:17:37.700Z,99.90
2019-05-29T02:20:06.116Z,99.90
2019-05-29T02:22:34.044Z,99.90
2019-05-29T02:25:01.923Z,99.90
2019-05-29T02:27:29.786Z,99.90
2019-05-29T02:29:57.682Z,99.90
2019-05-29T02:32:25.691Z,99.90
2019-05-29T02:34:54.554Z,99.90
2019-05-29T02:37:24.325Z,99.90
2019-05-29T02:39:52.356Z,99.90
2019-05-29T02:42:21.011Z,99.90
2019-05-29T02:44:48.997Z,99.90
2019-05-29T02:47:16.856Z,99.90
2019-05-29T02:49:44.928Z,99.90
2019-05-29T02:52:12.917Z,99.90
2019-05-29T02:54:41.133Z,99.90
2019-05-29T02:57:09.107Z,99.90
2019-05-29T02:59:37.019Z,99.90
2019-05-29T03:02:05.546Z,99.90
2019-05-29T03:04:33.454Z,99.90
2019-05-29T03:07:01.494Z,99.90
2019-05-29T03:09:30.685Z,99.90
2019-05-29T03:12:00.422Z,99.90
2019-05-29T03:14:29.658Z,99.90
2019-05-29T03:16:57.966Z,99.90
2019-05-29T03:19:27.894Z,99.90
2019-05-29T03:21:56.306Z,99.90
2019-05-29T03:24:24.660Z,99.90
2019-05-29T03:26:54.450Z,99.90
2019-05-29T03:29:22.387Z,99.90
2019-05-29T03:31:50.228Z,99.90
2019-05-29T03:34:18.246Z,99.90
2019-05-29T03:36:48.198Z,99.90
2019-05-29T03:39:15.819Z,99.90
2019-05-29T03:41:44.497Z,99.90
2019-05-29T03:44:12.331Z,99.90
2019-05-29T03:46:45.703Z,99.90
2019-05-29T03:49:10.808Z,99.90
2019-05-29T03:51:41.338Z,99.90
2019-05-29T03:54:09.362Z,99.90
2019-05-29T03:56:38.913Z,99.90
2019-05-29T03:59:07.079Z,99.90
2019-05-29T04:01:37.265Z,99.90
2019-05-29T04:04:05.535Z,99.90
2019-05-29T04:06:35.355Z,99.90
2019-05-29T04:09:05.848Z,99.90
2019-05-29T04:11:35.598Z,99.90
2019-05-29T04:14:04.184Z,99.90
2019-05-29T04:16:52.679Z,99.90
2019-05-29T04:19:03.824Z,99.90
2019-05-29T04:21:34.334Z,99.90
2019-05-29T04:24:05.674Z,99.90
2019-05-29T04:26:39.038Z,99.90
2019-05-29T04:29:07.701Z,99.90
2019-05-29T04:31:36.646Z,99.90
2019-05-29T04:34:05.025Z,99.90
2019-05-29T04:36:34.743Z,99.90
2019-05-29T04:39:04.946Z,99.90
2019-05-29T04:41:34.615Z,99.90
2019-05-29T04:44:02.749Z,99.90
2019-05-29T04:46:31.725Z,99.90
2019-05-29T04:49:11.941Z,99.90
2019-05-29T04:51:46.993Z,99.90
2019-05-29T04:54:20.392Z,99.90
2019-05-29T04:56:53.165Z,99.90
2019-05-29T04:59:33.614Z,99.90
2019-05-29T05:02:11.535Z,99.90
2019-05-29T05:04:50.493Z,99.90
2019-05-29T05:07:37.460Z,99.90
2019-05-29T05:10:31.400Z,99.90
2019-05-29T05:13:13.473Z,99.90
2019-05-29T05:15:48.107Z,99.90
2019-05-29T05:18:23.944Z,99.90
2019-05-29T05:21:05.821Z,99.90
2019-05-29T05:23:38.226Z,99.90
2019-05-29T05:26:27.267Z,99.90
2019-05-29T05:28:56.016Z,99.90
2019-05-29T05:31:24.441Z,99.90
2019-05-29T05:33:53.617Z,99.90
2019-05-29T05:36:23.414Z,99.90
2019-05-29T05:38:52.367Z,99.90
2019-05-29T05:41:23.538Z,99.90
2019-05-29T05:43:52.007Z,99.90
2019-05-29T05:46:24.813Z,99.90
2019-05-29T05:48:53.508Z,99.90
2019-05-29T05:51:22.793Z,99.90
2019-05-29T05:53:54.352Z,99.90
2019-05-29T05:56:25.089Z,99.90
2019-05-29T05:59:13.902Z,99.90
2019-05-29T06:01:47.679Z,99.90
2019-05-29T06:04:27.732Z,99.90
2019-05-29T06:07:09.499Z,99.90
2019-05-29T06:09:40.307Z,99.90
2019-05-29T06:12:08.851Z,99.90
2019-05-29T06:14:38.407Z,99.90
2019-05-29T06:17:06.485Z,99.90
2019-05-29T06:19:34.935Z,99.90
2019-05-29T06:22:03.130Z,99.90
2019-05-29T06:24:31.108Z,99.90
2019-05-29T06:27:19.533Z,99.90
2019-05-29T06:29:47.547Z,99.90
2019-05-29T06:32:15.691Z,99.90
2019-05-29T06:34:43.863Z,99.90
2019-05-29T06:37:11.958Z,99.90
2019-05-29T06:39:40.075Z,99.90
2019-05-29T06:42:07.990Z,99.90
2019-05-29T06:44:36.613Z,99.90
2019-05-29T06:47:05.617Z,99.90
2019-05-29T06:49:33.895Z,99.90
2019-05-29T06:52:02.011Z,99.90
2019-05-29T06:54:30.144Z,99.90
2019-05-29T06:56:58.108Z,99.90
2019-05-29T06:59:26.076Z,99.90
2019-05-29T07:01:54.150Z,99.90
2019-05-29T07:04:22.581Z,99.90
2019-05-29T07:06:50.602Z,99.90
2019-05-29T07:09:18.978Z,99.90
2019-05-29T07:11:47.569Z,99.90
2019-05-29T07:14:15.662Z,99.90
2019-05-29T07:16:55.120Z,99.90
2019-05-29T07:19:47.106Z,99.90
2019-05-29T07:21:44.931Z,99.90
2019-05-29T07:24:13.165Z,99.90
2019-05-29T07:26:41.330Z,99.90
2019-05-29T07:29:09.759Z,99.90
2019-05-29T07:31:40.915Z,99.90
2019-05-29T07:34:09.254Z,99.90
2019-05-29T07:36:37.930Z,99.90
2019-05-29T07:39:07.355Z,99.90
2019-05-29T07:41:35.783Z,99.90
2019-05-29T07:44:04.052Z,99.90
2019-05-29T07:46:32.257Z,99.90
2019-05-29T07:49:01.934Z,99.90
2019-05-29T07:51:30.090Z,99.90
2019-05-29T07:53:58.152Z,99.90
2019-05-29T07:56:26.268Z,99.90
2019-05-29T07:59:02.334Z,99.90
2019-05-29T08:01:24.771Z,99.90
2019-05-29T08:03:52.709Z,99.90
2019-05-29T08:06:20.768Z,99.90
2019-05-29T08:08:49.531Z,99.90
2019-05-29T08:11:17.695Z,99.90
2019-05-29T08:13:45.733Z,99.90
2019-05-29T08:16:14.812Z,99.90
2019-05-29T08:18:47.250Z,99.90
2019-05-29T08:21:13.020Z,99.90
2019-05-29T08:23:42.181Z,99.90
2019-05-29T08:26:10.628Z,99.90
2019-05-29T08:28:38.711Z,99.90
2019-05-29T08:31:07.038Z,99.90
2019-05-29T08:33:35.353Z,99.90
2019-05-29T08:36:03.403Z,99.90
2019-05-29T08:38:31.464Z,99.90
2019-05-29T08:40:59.856Z,99.90
2019-05-29T08:43:27.877Z,99.90
2019-05-29T08:45:56.353Z,99.90
2019-05-29T08:48:24.351Z,99.90
2019-05-29T08:50:52.463Z,99.90
2019-05-29T08:53:20.769Z,99.90
2019-05-29T08:55:50.730Z,99.90
2019-05-29T08:58:19.331Z,99.90
2019-05-29T09:00:51.970Z,99.90
2019-05-29T09:03:17.250Z,99.90
2019-05-29T09:05:46.696Z,99.90
2019-05-29T09:08:14.747Z,99.90
2019-05-29T09:10:43.282Z,99.90
2019-05-29T09:13:11.240Z,99.90
2019-05-29T09:15:39.246Z,99.90
2019-05-29T09:18:07.350Z,99.90
2019-05-29T09:20:57.729Z,99.90
2019-05-29T09:23:05.466Z,99.90
2019-05-29T09:25:33.542Z,99.90
2019-05-29T09:28:01.435Z,99.90
2019-05-29T09:30:29.796Z,99.90
2019-05-29T09:32:57.826Z,99.90
2019-05-29T09:35:25.957Z,99.90
2019-05-29T09:37:54.033Z,99.90
2019-05-29T09:40:23.101Z,99.90
2019-05-29T09:42:51.118Z,99.90
2019-05-29T09:45:19.514Z,99.90
2019-05-29T09:47:48.193Z,99.90
2019-05-29T09:50:18.569Z,99.90
2019-05-29T09:52:46.906Z,99.90
2019-05-29T09:55:15.070Z,99.90
2019-05-29T09:57:43.426Z,99.90
2019-05-29T10:03:19.040Z,99.90
2019-05-29T10:05:46.674Z,99.90
2019-05-29T10:08:16.985Z,99.90
2019-05-29T10:10:44.003Z,99.90
2019-05-29T10:13:11.597Z,99.30
2019-05-29T10:15:39.200Z,99.90
2019-05-29T10:18:13.286Z,99.90
2019-05-29T10:20:36.214Z,99.90
2019-05-29T10:23:05.068Z,99.90
2019-05-29T10:25:32.879Z,99.90
2019-05-29T10:28:00.885Z,99.90
2019-05-29T10:30:29.026Z,99.90
2019-05-29T10:32:56.992Z,99.90
2019-05-29T10:35:24.660Z,99.90
2019-05-29T10:37:52.976Z,99.60
2019-05-29T10:40:21.638Z,98.80
2019-05-29T10:42:53.609Z,97.30
2019-05-29T10:45:21.772Z,97.70
2019-05-29T10:47:49.758Z,97.60
2019-05-29T10:50:18.536Z,99.90
2019-05-29T10:52:47.709Z,98.40
2019-05-29T10:55:18.964Z,96.60
2019-05-29T10:57:46.901Z,97.40
2019-05-29T11:00:16.668Z,98.30
2019-05-29T11:02:45.975Z,99.90
2019-05-29T11:05:13.894Z,95.50
2019-05-29T11:07:43.047Z,97.20
2019-05-29T11:10:13.572Z,94.60
2019-05-29T11:12:48.304Z,95.20
2019-05-29T11:15:21.562Z,96.50
2019-05-29T11:17:47.223Z,95.10
2019-05-29T11:20:15.292Z,94.20
2019-05-29T11:22:42.929Z,93.10
2019-05-29T11:25:22.403Z,91.90
2019-05-29T11:27:40.772Z,92.90
2019-05-29T11:30:14.198Z,90.20
2019-05-29T11:32:42.161Z,93.80
2019-05-29T11:41:29.395Z,91.90
2019-05-29T11:44:10.848Z,92.10
2019-05-29T11:46:38.472Z,91.20
2019-05-29T11:49:06.392Z,93.20
2019-05-29T11:51:33.995Z,93.20
2019-05-29T11:54:02.472Z,93.40
2019-05-29T11:56:30.060Z,91.40
2019-05-29T11:58:58.953Z,88.80
2019-05-29T12:01:26.614Z,90.70
2019-05-29T12:04:25.160Z,86.70
2019-05-29T12:06:24.187Z,87.90
2019-05-29T12:08:51.783Z,84.70
2019-05-29T12:11:19.932Z,87.50
2019-05-29T12:13:47.558Z,90.70
2019-05-29T12:16:15.172Z,89.20
2019-05-29T12:18:42.757Z,87.50
2019-05-29T12:21:10.392Z,85.00
2019-05-29T12:23:37.987Z,80.20
2019-05-29T12:26:20.097Z,84.40
2019-05-29T12:28:35.247Z,83.20
2019-05-29T12:31:03.503Z,84.40
2019-05-29T12:33:32.209Z,84.40
2019-05-29T12:36:01.166Z,83.60
2019-05-29T12:38:28.927Z,85.90
2019-05-29T12:40:57.677Z,83.40
2019-05-29T12:43:27.846Z,83.10
2019-05-29T12:48:43.965Z,86.90
2019-05-29T12:51:15.573Z,84.90
2019-05-29T12:53:43.424Z,84.60
2019-05-29T12:56:11.034Z,82.20
2019-05-29T12:58:38.685Z,86.20
2019-05-29T13:01:06.516Z,89.50
2019-05-29T13:03:34.508Z,87.90
2019-05-29T13:06:02.441Z,87.40
2019-05-29T13:08:30.087Z,87.90
2019-05-29T13:10:58.309Z,88.60
2019-05-29T13:13:26.179Z,87.40
2019-05-29T13:15:54.772Z,88.00
2019-05-29T13:18:22.691Z,88.80
2019-05-29T13:20:50.312Z,84.70
2019-05-29T13:23:18.199Z,82.30
2019-05-29T13:25:45.802Z,84.00
2019-05-29T13:28:13.391Z,80.60
2019-05-29T13:30:41.267Z,77.80
2019-05-29T13:33:09.255Z,76.70
2019-05-29T13:35:37.153Z,77.20
2019-05-29T13:38:05.247Z,71.10
2019-05-29T13:40:32.872Z,72.00
2019-05-29T13:43:09.732Z,74.50
2019-05-29T13:45:30.463Z,74.40
2019-05-29T13:47:59.110Z,71.40
2019-05-29T13:50:26.755Z,74.40
2019-05-29T13:52:54.546Z,68.60
2019-05-29T13:55:22.178Z,71.10
2019-05-29T13:57:49.902Z,75.20
2019-05-29T14:00:32.296Z,74.40
2019-05-29T14:02:47.718Z,77.90
2019-05-29T14:05:16.084Z,80.30
2019-05-29T14:07:43.825Z,79.60
2019-05-29T14:10:11.981Z,78.60
2019-05-29T14:12:39.976Z,79.10
2019-05-29T14:15:08.931Z,77.70
2019-05-29T14:17:37.342Z,80.80
2019-05-29T14:20:06.752Z,79.50
2019-05-29T14:22:34.578Z,78.10
2019-05-29T14:25:03.247Z,77.60
2019-05-29T14:27:30.900Z,78.30
2019-05-29T14:29:59.057Z,81.70
2019-05-29T14:32:28.458Z,78.30
2019-05-29T14:34:56.174Z,76.80
2019-05-29T14:37:23.977Z,74.00
2019-05-29T14:39:51.690Z,73.20
2019-05-29T14:42:19.478Z,74.20
2019-05-29T14:44:47.162Z,78.60
2019-05-29T14:47:15.446Z,76.40
2019-05-29T14:49:43.166Z,72.40
2019-05-29T14:52:11.763Z,74.10
2019-05-29T14:54:42.401Z,75.00
2019-05-29T14:57:23.464Z,77.60
2019-05-29T14:59:59.303Z,79.00
2019-05-29T15:02:27.030Z,75.60
2019-05-29T15:04:54.933Z,77.20
2019-05-29T15:07:23.072Z,75.70
2019-05-29T15:09:50.726Z,76.60
2019-05-29T15:12:18.340Z,76.60
2019-05-29T15:14:46.953Z,79.00
2019-05-29T15:17:15.450Z,76.10
2019-05-29T15:19:43.201Z,76.80
2019-05-29T15:22:11.576Z,78.60
2019-05-29T15:24:39.276Z,80.40
2019-05-29T15:27:07.884Z,82.40
2019-05-29T15:29:35.547Z,82.60
2019-05-29T15:32:03.238Z,83.30
2019-05-29T15:34:30.888Z,81.10
2019-05-29T15:36:58.826Z,81.00
2019-05-29T15:39:26.446Z,79.90
2019-05-29T15:41:54.097Z,79.30
2019-05-29T15:44:21.705Z,81.90
2019-05-29T15:46:49.330Z,85.70
2019-05-29T15:49:17.295Z,92.10
2019-05-29T15:51:45.065Z,95.30
2019-05-29T15:54:13.376Z,99.60
2019-05-29T15:56:41.346Z,99.90
2019-05-29T15:59:09.957Z,99.90
2019-05-29T16:01:39.934Z,99.90
2019-05-29T16:04:07.685Z,99.90
2019-05-29T16:06:35.227Z,99.90
2019-05-29T16:09:24.139Z,99.90
2019-05-29T16:11:52.299Z,99.90
2019-05-29T16:17:06.784Z,99.90
2019-05-29T16:19:34.381Z,99.90
2019-05-29T16:22:02.080Z,99.90
2019-05-29T16:24:29.970Z,99.90
2019-05-29T16:27:08.345Z,99.90
2019-05-29T16:29:27.683Z,99.90
2019-05-29T16:31:55.419Z,99.90
2019-05-29T16:34:23.099Z,99.90
2019-05-29T16:36:50.634Z,99.90
2019-05-29T16:39:19.704Z,99.90
2019-05-29T16:41:47.666Z,99.90
2019-05-29T16:44:16.299Z,99.90
2019-05-29T16:46:44.247Z,99.90
2019-05-29T16:49:12.532Z,99.90
2019-05-29T16:51:42.114Z,99.90
2019-05-29T16:54:09.556Z,99.90
2019-05-29T16:56:37.164Z,99.90
2019-05-29T16:59:04.789Z,99.90
2019-05-29T17:01:33.215Z,99.90
2019-05-29T17:04:00.863Z,99.90
2019-05-29T17:06:28.495Z,99.90
2019-05-29T17:08:56.363Z,99.90
2019-05-29T17:11:25.140Z,99.90
2019-05-29T17:13:52.777Z,99.90
2019-05-29T17:16:20.696Z,99.90
2019-05-29T17:18:48.881Z,99.90
2019-05-29T17:21:16.633Z,99.90
2019-05-29T17:23:44.579Z,99.90
2019-05-29T17:26:12.197Z,99.90
2019-05-29T17:28:40.130Z,99.90
2019-05-29T17:31:07.734Z,99.90
2019-05-29T17:33:35.398Z,99.90
2019-05-29T17:36:03.402Z,99.90
2019-05-29T17:38:31.038Z,99.90
2019-05-29T17:40:58.665Z,99.90
2019-05-29T17:43:28.652Z,99.90
2019-05-29T17:45:56.124Z,99.90
2019-05-29T17:48:23.986Z,99.90
2019-05-29T17:50:51.559Z,99.90
2019-05-29T17:53:20.023Z,99.90
2019-05-29T17:55:47.648Z,99.90
2019-05-29T17:58:15.707Z,99.90
2019-05-29T18:00:43.369Z,99.90
2019-05-29T18:03:11.237Z,99.90
2019-05-29T18:05:39.420Z,99.90
2019-05-29T18:08:07.023Z,99.90
2019-05-29T18:10:34.686Z,99.90
2019-05-29T18:13:02.257Z,99.90
2019-05-29T18:15:29.895Z,99.90
2019-05-29T18:17:57.478Z,99.90
2019-05-29T18:20:25.862Z,99.90
2019-05-29T18:22:53.819Z,99.90
2019-05-29T18:25:21.900Z,99.90
2019-05-29T18:27:49.570Z,99.90
2019-05-29T18:30:18.247Z,99.90
2019-05-29T18:32:45.866Z,99.90
2019-05-29T18:35:13.756Z,99.90
2019-05-29T18:37:41.338Z,99.90
2019-05-29T18:40:12.423Z,99.90
2019-05-29T18:42:39.573Z,99.90
2019-05-29T18:45:19.669Z,99.90
2019-05-29T18:47:37.278Z,99.90
2019-05-29T18:50:05.501Z,99.90
2019-05-29T18:52:33.132Z,99.90
2019-05-29T18:55:00.743Z,99.90
2019-05-29T18:57:29.090Z,99.90
2019-05-29T18:59:56.714Z,99.90
2019-05-29T19:02:25.408Z,99.90
2019-05-29T19:04:53.081Z,99.90
2019-05-29T19:07:21.540Z,99.90
2019-05-29T19:09:49.238Z,99.90
2019-05-29T19:12:17.401Z,99.90
2019-05-29T19:14:45.298Z,99.90
2019-05-29T19:17:12.940Z,99.90
2019-05-29T19:19:40.542Z,99.90
2019-05-29T19:22:08.620Z,99.90
2019-05-29T19:24:36.502Z,99.90
2019-05-29T19:27:04.151Z,99.90
2019-05-29T19:29:33.140Z,99.90
2019-05-29T19:32:00.967Z,99.90
2019-05-29T19:34:29.408Z,99.90
2019-05-29T19:36:56.996Z,99.90
2019-05-29T19:39:25.782Z,99.90
2019-05-29T19:41:53.458Z,99.90
2019-05-29T19:44:21.157Z,99.90
2019-05-29T19:46:54.090Z,99.90
2019-05-29T19:49:18.106Z,99.90
2019-05-29T19:51:45.746Z,99.90
2019-05-29T19:54:14.357Z,99.90
2019-05-29T19:56:42.216Z,99.90
2019-05-29T19:59:09.856Z,99.90
2019-05-29T20:01:40.336Z,99.90
2019-05-29T20:04:07.164Z,99.90
2019-05-29T20:06:35.365Z,99.90
2019-05-29T20:09:04.568Z,99.90
2019-05-29T20:11:33.519Z,99.90
2019-05-29T20:16:45.993Z,99.90
2019-05-29T20:19:19.380Z,99.90
2019-05-29T20:21:50.103Z,99.90
2019-05-29T20:24:17.835Z,99.90
2019-05-29T20:26:45.369Z,99.90
2019-05-29T20:29:14.552Z,99.90
2019-05-29T20:31:43.598Z,99.90
2019-05-29T20:34:11.458Z,99.90
2019-05-29T20:36:41.438Z,99.90
2019-05-29T20:39:09.260Z,99.90
2019-05-29T20:41:41.568Z,99.90
2019-05-29T20:44:26.149Z,99.90
2019-05-29T20:49:47.693Z,99.90
2019-05-29T20:52:20.893Z,99.90
2019-05-29T20:54:50.769Z,99.90
2019-05-29T20:57:18.464Z,99.90
2019-05-29T20:59:46.131Z,99.90
2019-05-29T21:02:14.059Z,99.90
2019-05-29T21:04:42.789Z,99.90
2019-05-29T21:07:10.479Z,99.90
2019-05-29T21:09:39.207Z,99.90
2019-05-29T21:12:06.868Z,99.90
2019-05-29T21:14:35.521Z,99.90
2019-05-29T21:17:03.269Z,99.90
2019-05-29T21:19:31.273Z,99.90
2019-05-29T21:21:59.191Z,99.90
2019-05-29T21:24:26.810Z,99.90
2019-05-29T21:26:54.444Z,99.90
2019-05-29T21:29:23.093Z,99.90
2019-05-29T21:31:50.775Z,99.90
2019-05-29T21:34:18.419Z,99.90
2019-05-29T21:36:46.383Z,99.90
2019-05-29T21:39:14.123Z,99.90
2019-05-29T21:41:42.593Z,99.90
2019-05-29T21:44:11.281Z,99.90
2019-05-29T21:46:38.918Z,99.90
2019-05-29T21:49:06.569Z,99.90
2019-05-29T21:51:35.270Z,99.90
2019-05-29T21:54:03.502Z,99.90
2019-05-29T21:56:31.193Z,99.90
2019-05-29T21:59:03.881Z,99.90
2019-05-29T22:01:28.515Z,99.90
2019-05-29T22:03:56.260Z,99.90
2019-05-29T22:06:24.123Z,99.90
2019-05-29T22:08:51.758Z,99.90
2019-05-29T22:11:19.768Z,99.90
2019-05-29T22:13:48.459Z,99.90
2019-05-29T22:16:16.051Z,99.90
2019-05-29T22:18:43.982Z,99.90
2019-05-29T22:21:11.563Z,99.90
2019-05-29T22:23:39.177Z,99.90
2019-05-29T22:26:07.070Z,99.90
2019-05-29T22:28:34.728Z,99.90
2019-05-29T22:31:02.468Z,99.90
2019-05-29T22:33:30.063Z,99.90
2019-05-29T22:35:57.943Z,99.90
2019-05-29T22:38:26.086Z,99.90
2019-05-29T22:40:53.908Z,99.90
2019-05-29T22:43:21.521Z,99.90
2019-05-29T22:45:49.146Z,99.90
2019-05-29T22:48:17.126Z,99.90
2019-05-29T22:50:44.752Z,99.90
2019-05-29T22:53:12.484Z,99.90
2019-05-29T22:55:40.081Z,99.90
2019-05-29T22:58:07.594Z,99.90
2019-05-29T23:00:35.322Z,99.90
2019-05-29T23:03:03.418Z,99.90
2019-05-29T23:05:31.047Z,99.90
2019-05-29T23:07:58.650Z,99.90
2019-05-29T23:10:26.543Z,99.90
2019-05-29T23:12:54.484Z,99.90
2019-05-29T23:15:24.051Z,99.90
2019-05-29T23:23:32.575Z,99.90
2019-05-29T23:26:00.762Z,99.90
2019-05-29T23:28:28.643Z,99.90
2019-05-29T23:30:56.681Z,99.90
2019-05-29T23:33:24.278Z,99.90
2019-05-29T23:35:52.892Z,99.90
2019-05-29T23:38:20.562Z,99.90
2019-05-29T23:40:48.304Z,99.90
2019-05-29T23:43:15.916Z,99.90
2019-05-29T23:45:46.304Z,99.90
2019-05-29T23:48:14.157Z,99.90
2019-05-29T23:50:42.026Z,99.90
2019-05-29T23:53:09.612Z,99.90
2019-05-29T23:55:37.774Z,99.90
2019-05-29T23:58:08.124Z,99.90
